createdAt,value
2022-08-27T00:09:03.819Z,49.65
2022-08-27T00:19:07.908Z,49.86
2022-08-27T00:29:12.088Z,51.09
2022-08-27T00:39:16.334Z,53.46
2022-08-27T00:49:26.679Z,52.98
2022-08-27T00:59:31.242Z,52.32
2022-08-27T01:09:34.808Z,51.55
2022-08-27T01:19:52.018Z,53.58
2022-08-27T01:29:55.542Z,55.68
2022-08-27T01:39:59.175Z,54.79
2022-08-27T01:50:07.283Z,55.44
2022-08-27T02:00:18.357Z,55.57
2022-08-27T02:10:35.223Z,56.77
2022-08-27T02:20:38.420Z,57.89
2022-08-27T02:30:41.835Z,60.46
2022-08-27T02:40:44.847Z,61.93
2022-08-27T02:50:47.880Z,63.08
2022-08-27T03:00:51.528Z,65.85
2022-08-27T03:10:56.901Z,66.26
2022-08-27T03:21:01.444Z,67.66
2022-08-27T03:31:08.550Z,68.14
2022-08-27T03:41:11.767Z,67.59
2022-08-27T03:51:15.858Z,66.79
2022-08-27T04:01:19.516Z,71.00
2022-08-27T04:11:22.572Z,71.77
2022-08-27T04:21:25.840Z,72.46
2022-08-27T04:31:28.885Z,71.40
2022-08-27T04:41:33.637Z,71.59
2022-08-27T04:51:37.401Z,70.51
2022-08-27T05:01:43.770Z,65.02
2022-08-27T05:11:47.185Z,63.77
2022-08-27T05:21:52.286Z,60.26
2022-08-27T05:31:55.389Z,59.27
2022-08-27T05:41:58.567Z,57.37
2022-08-27T05:52:01.631Z,56.61
2022-08-27T06:02:06.356Z,54.73
2022-08-27T06:12:09.857Z,52.76
2022-08-27T06:22:13.163Z,51.92
2022-08-27T06:32:16.289Z,50.82
2022-08-27T06:42:19.745Z,48.76
2022-08-27T06:52:24.206Z,49.35
2022-08-27T07:02:36.538Z,48.68
2022-08-27T07:12:39.559Z,47.06
2022-08-27T07:22:44.525Z,46.33
2022-08-27T07:32:48.531Z,44.38
2022-08-27T07:43:26.862Z,42.91
2022-08-27T07:53:29.836Z,39.99
2022-08-27T08:03:32.914Z,38.14
2022-08-27T08:13:36.472Z,36.88
2022-08-27T08:23:40.842Z,33.90
2022-08-27T08:33:43.927Z,36.29
2022-08-27T08:43:51.688Z,33.33
2022-08-27T08:54:05.032Z,33.38
2022-08-27T09:04:11.962Z,33.75
2022-08-27T09:14:47.798Z,32.82
2022-08-27T09:25:20.845Z,31.87
2022-08-27T09:35:27.133Z,30.73
2022-08-27T09:45:30.472Z,30.30
2022-08-27T09:55:46.313Z,30.08
2022-08-27T10:05:51.954Z,26.06
2022-08-27T10:16:21.165Z,28.01
2022-08-27T10:26:52.834Z,25.52
2022-08-27T10:37:41.602Z,23.85
2022-08-27T10:48:08.825Z,24.74
2022-08-27T10:58:24.582Z,22.05
2022-08-27T11:08:50.145Z,20.35
2022-08-27T11:18:59.368Z,20.76
2022-08-27T11:29:13.386Z,20.36
2022-08-27T11:39:51.837Z,22.90
2022-08-27T11:49:58.773Z,21.62
2022-08-27T12:00:34.009Z,21.28
2022-08-27T12:10:56.193Z,19.64
2022-08-27T12:21:32.194Z,20.79
2022-08-27T12:31:36.042Z,21.05
2022-08-27T12:41:46.142Z,21.81
2022-08-27T12:51:49.166Z,22.39
2022-08-27T13:02:03.978Z,23.01
2022-08-27T13:12:19.034Z,21.96
2022-08-27T13:22:25.290Z,22.83
2022-08-27T13:32:30.940Z,22.13
2022-08-27T13:42:34.197Z,23.93
2022-08-27T13:53:00.431Z,26.12
2022-08-27T14:03:04.439Z,26.89
2022-08-27T14:13:13.685Z,27.94
2022-08-27T14:23:17.687Z,26.73
2022-08-27T14:33:20.707Z,24.24
2022-08-27T14:43:23.705Z,25.68
2022-08-27T14:53:27.999Z,27.77
2022-08-27T15:03:31.807Z,28.61
2022-08-27T15:13:34.993Z,26.56
2022-08-27T15:23:42.003Z,31.35
2022-08-27T15:33:48.510Z,31.33
2022-08-27T15:43:51.651Z,32.91
2022-08-27T15:53:54.729Z,33.05
2022-08-27T16:03:59.688Z,33.62
2022-08-27T16:14:03.430Z,36.27
2022-08-27T16:24:09.550Z,40.19
2022-08-27T16:34:19.022Z,44.12
2022-08-27T16:44:22.028Z,46.90
2022-08-27T16:54:25.785Z,43.36
2022-08-27T17:04:36.673Z,47.47
2022-08-27T17:14:45.390Z,49.37
2022-08-27T17:24:48.584Z,52.01
2022-08-27T17:34:51.600Z,51.81
2022-08-27T17:44:54.842Z,51.84
2022-08-27T17:54:58.719Z,48.29
2022-08-27T18:05:02.356Z,49.62
2022-08-27T18:15:18.872Z,49.14
2022-08-27T18:25:26.697Z,49.43
2022-08-27T18:35:32.515Z,49.90
2022-08-27T18:45:37.749Z,49.24
2022-08-27T18:55:41.564Z,50.62
2022-08-27T19:05:44.656Z,50.25
2022-08-27T19:15:57.211Z,51.19
2022-08-27T19:26:01.510Z,52.77
2022-08-27T19:36:05.873Z,52.13
2022-08-27T19:46:10.123Z,52.28
2022-08-27T19:56:14.002Z,54.92
2022-08-27T20:06:17.170Z,57.20
2022-08-27T20:16:20.252Z,56.21
2022-08-27T20:26:24.942Z,58.91
2022-08-27T20:36:29.816Z,58.88
2022-08-27T20:46:34.574Z,60.95
2022-08-27T20:56:37.531Z,63.41
2022-08-27T21:06:40.543Z,66.76
2022-08-27T21:16:43.558Z,66.30
2022-08-27T21:26:47.839Z,67.08
2022-08-27T21:36:51.352Z,69.82
2022-08-27T21:46:54.483Z,67.75
2022-08-27T21:56:57.809Z,68.08
2022-08-27T22:07:00.853Z,69.11
2022-08-27T22:17:04.274Z,72.02
2022-08-27T22:27:07.410Z,71.53
2022-08-27T22:37:10.769Z,73.16
2022-08-27T22:47:15.069Z,75.10
2022-08-27T22:57:18.169Z,75.05
2022-08-27T23:07:21.517Z,74.54
2022-08-27T23:17:24.863Z,76.03
2022-08-27T23:27:29.949Z,78.40
2022-08-27T23:37:33.183Z,78.99
2022-08-27T23:47:37.211Z,81.69
2022-08-27T23:57:40.736Z,82.02
